createdAt,value
2019-05-20T00:00:01.110Z,3.60
2019-05-20T00:02:28.637Z,4.47
2019-05-20T00:04:57.232Z,8.33
2019-05-20T00:07:23.978Z,3.67
2019-05-20T00:09:51.063Z,3.50
2019-05-20T00:12:17.834Z,4.50
2019-05-20T00:14:44.620Z,3.87
2019-05-20T00:17:11.340Z,3.90
2019-05-20T00:19:38.108Z,4.17
2019-05-20T00:22:04.802Z,4.10
2019-05-20T00:24:31.805Z,4.10
2019-05-20T00:26:58.604Z,3.50
2019-05-20T00:29:25.668Z,3.80
2019-05-20T00:31:53.436Z,4.23
2019-05-20T00:34:34.692Z,6.10
2019-05-20T00:36:52.148Z,4.50
2019-05-20T00:39:20.597Z,4.33
2019-05-20T00:41:47.554Z,4.93
2019-05-20T00:44:14.318Z,5.30
2019-05-20T00:46:41.144Z,5.40
2019-05-20T00:49:10.568Z,5.60
2019-05-20T00:51:37.394Z,5.47
2019-05-20T00:54:06.051Z,5.80
2019-05-20T00:56:32.814Z,10.60
2019-05-20T00:58:59.692Z,6.13
2019-05-20T01:01:26.449Z,6.70
2019-05-20T01:03:53.230Z,6.43
2019-05-20T01:06:19.981Z,6.43
2019-05-20T01:08:46.731Z,6.27
2019-05-20T01:11:13.560Z,6.40
2019-05-20T01:13:40.329Z,5.47
2019-05-20T01:16:07.080Z,4.77
2019-05-20T01:18:33.919Z,5.40
2019-05-20T01:21:00.759Z,5.57
2019-05-20T01:23:27.605Z,4.87
2019-05-20T01:25:54.544Z,6.27
2019-05-20T01:28:21.676Z,4.50
2019-05-20T01:30:48.478Z,4.30
2019-05-20T01:33:18.135Z,4.90
2019-05-20T01:35:44.896Z,4.33
2019-05-20T01:38:12.122Z,3.70
2019-05-20T01:40:38.884Z,4.20
2019-05-20T01:43:05.626Z,5.33
2019-05-20T01:45:32.458Z,4.00
2019-05-20T01:48:00.109Z,4.40
2019-05-20T01:50:26.984Z,4.03
2019-05-20T01:52:53.829Z,5.00
2019-05-20T01:55:20.586Z,4.47
2019-05-20T01:57:47.451Z,6.90
2019-05-20T02:00:14.204Z,6.87
2019-05-20T02:02:41.034Z,6.00
2019-05-20T02:05:08.387Z,6.63
2019-05-20T02:07:35.140Z,6.90
2019-05-20T02:10:01.944Z,6.80
2019-05-20T02:12:28.684Z,7.00
2019-05-20T02:15:01.543Z,5.70
2019-05-20T02:17:29.065Z,7.07
2019-05-20T02:19:55.796Z,8.13
2019-05-20T02:22:23.087Z,8.40
2019-05-20T02:24:50.448Z,8.23
2019-05-20T02:27:17.483Z,7.30
2019-05-20T02:29:44.433Z,8.83
2019-05-20T02:32:11.273Z,6.87
2019-05-20T02:34:38.408Z,6.53
2019-05-20T02:37:05.228Z,11.17
2019-05-20T02:39:31.942Z,6.60
2019-05-20T02:41:58.757Z,7.27
2019-05-20T02:44:25.494Z,7.10
2019-05-20T02:46:52.416Z,7.00
2019-05-20T02:49:19.275Z,5.90
2019-05-20T02:51:46.013Z,6.90
2019-05-20T02:54:12.765Z,8.23
2019-05-20T02:56:39.631Z,6.93
2019-05-20T02:59:06.395Z,7.40
2019-05-20T03:01:33.084Z,7.50
2019-05-20T03:04:10.955Z,7.60
2019-05-20T03:06:28.844Z,7.60
2019-05-20T03:08:55.564Z,6.93
2019-05-20T03:11:22.328Z,9.40
2019-05-20T03:13:50.311Z,6.80
2019-05-20T03:16:17.011Z,6.83
2019-05-20T03:18:44.171Z,7.70
2019-05-20T03:21:10.911Z,7.77
2019-05-20T03:23:37.653Z,8.87
2019-05-20T03:26:04.549Z,10.47
2019-05-20T03:28:31.645Z,9.60
2019-05-20T03:30:58.517Z,11.23
2019-05-20T03:33:25.382Z,8.53
2019-05-20T03:35:52.274Z,14.50
2019-05-20T03:38:18.994Z,8.93
2019-05-20T03:40:45.747Z,8.77
2019-05-20T03:43:12.915Z,8.47
2019-05-20T03:45:39.685Z,8.00
2019-05-20T03:48:06.833Z,11.93
2019-05-20T03:50:33.529Z,8.50
2019-05-20T03:53:00.310Z,8.40
2019-05-20T03:55:27.062Z,8.87
2019-05-20T03:57:53.785Z,8.60
2019-05-20T04:00:37.818Z,9.03
2019-05-20T04:03:04.540Z,8.10
2019-05-20T04:05:31.265Z,10.20
2019-05-20T04:07:58.067Z,13.70
2019-05-20T04:10:24.803Z,8.93
2019-05-20T04:12:51.519Z,13.03
2019-05-20T04:15:18.293Z,11.50
2019-05-20T04:17:45.388Z,10.50
2019-05-20T04:20:12.220Z,12.40
2019-05-20T04:22:39.334Z,10.70
2019-05-20T04:25:06.173Z,10.67
2019-05-20T04:27:32.937Z,11.80
2019-05-20T04:29:59.717Z,15.83
2019-05-20T04:32:26.506Z,17.60
2019-05-20T04:34:53.234Z,11.03
2019-05-20T04:37:19.966Z,11.77
2019-05-20T04:39:46.669Z,10.80
2019-05-20T04:42:13.718Z,11.90
2019-05-20T04:44:40.460Z,12.30
2019-05-20T04:47:07.561Z,12.13
2019-05-20T04:49:34.493Z,11.50
2019-05-20T04:52:01.586Z,12.93
2019-05-20T04:54:28.312Z,14.20
2019-05-20T04:56:55.529Z,19.00
2019-05-20T04:59:22.310Z,22.57
2019-05-20T05:01:49.118Z,18.17
2019-05-20T05:04:16.425Z,15.83
2019-05-20T05:06:43.175Z,16.37
2019-05-20T05:09:15.613Z,15.80
2019-05-20T05:11:41.155Z,13.67
2019-05-20T05:14:08.208Z,37.73
2019-05-20T05:16:36.462Z,16.13
2019-05-20T05:19:03.516Z,16.13
2019-05-20T05:21:30.578Z,16.57
2019-05-20T05:23:59.550Z,16.13
2019-05-20T05:26:26.932Z,22.37
2019-05-20T05:28:56.729Z,21.23
2019-05-20T05:31:26.246Z,22.23
2019-05-20T05:33:55.323Z,29.90
2019-05-20T05:36:22.081Z,19.70
2019-05-20T05:38:50.163Z,23.03
2019-05-20T05:41:17.295Z,26.43
2019-05-20T05:43:52.913Z,22.20
2019-05-20T05:46:19.816Z,25.33
2019-05-20T05:48:46.638Z,23.70
2019-05-20T05:51:13.412Z,25.17
2019-05-20T05:53:40.857Z,37.10
2019-05-20T05:56:07.979Z,26.60
2019-05-20T05:58:35.538Z,27.97
2019-05-20T06:01:02.384Z,28.97
2019-05-20T06:03:29.271Z,27.27
2019-05-20T06:06:10.685Z,29.83
2019-05-20T06:08:25.061Z,32.50
2019-05-20T06:10:51.840Z,32.10
2019-05-20T06:13:18.608Z,32.30
2019-05-20T06:15:45.468Z,33.37
2019-05-20T06:18:12.295Z,34.00
2019-05-20T06:20:40.904Z,37.30
2019-05-20T06:23:08.083Z,37.53
2019-05-20T06:25:34.801Z,39.90
2019-05-20T06:28:01.632Z,37.97
2019-05-20T06:30:40.300Z,40.00
2019-05-20T06:33:07.387Z,41.57
2019-05-20T06:35:36.858Z,40.93
2019-05-20T06:38:08.618Z,40.23
2019-05-20T06:40:36.524Z,43.80
2019-05-20T06:43:03.241Z,46.87
2019-05-20T06:45:31.136Z,42.23
2019-05-20T06:48:16.153Z,43.83
2019-05-20T06:50:43.816Z,42.00
2019-05-20T06:53:10.619Z,43.83
2019-05-20T06:55:40.543Z,44.23
2019-05-20T06:58:07.566Z,46.17
2019-05-20T07:00:40.323Z,48.27
2019-05-20T07:03:07.096Z,46.20
2019-05-20T07:05:33.903Z,47.03
2019-05-20T07:08:02.921Z,46.50
2019-05-20T07:10:30.205Z,39.70
2019-05-20T07:12:56.975Z,48.87
2019-05-20T07:15:23.973Z,46.03
2019-05-20T07:17:50.750Z,40.30
2019-05-20T07:20:17.878Z,45.00
2019-05-20T07:22:55.835Z,41.27
2019-05-20T07:25:15.481Z,46.27
2019-05-20T07:27:43.889Z,43.00
2019-05-20T07:30:15.048Z,42.13
2019-05-20T07:32:39.623Z,43.97
2019-05-20T07:35:06.461Z,46.33
2019-05-20T07:37:33.384Z,40.73
2019-05-20T07:40:01.877Z,42.50
2019-05-20T07:42:28.729Z,46.00
2019-05-20T07:44:55.512Z,47.87
2019-05-20T07:47:22.340Z,41.20
2019-05-20T07:49:49.279Z,40.70
2019-05-20T07:52:16.102Z,41.03
2019-05-20T07:54:43.090Z,43.73
2019-05-20T07:57:09.942Z,38.77
2019-05-20T07:59:39.402Z,39.70
2019-05-20T08:02:06.284Z,37.97
2019-05-20T08:04:33.445Z,40.40
2019-05-20T08:07:00.222Z,37.60
2019-05-20T08:09:27.080Z,39.00
2019-05-20T08:11:53.798Z,36.57
2019-05-20T08:14:21.169Z,40.33
2019-05-20T08:16:47.945Z,37.47
2019-05-20T08:19:14.677Z,42.87
2019-05-20T08:21:43.667Z,40.03
2019-05-20T08:24:10.415Z,38.23
2019-05-20T08:26:37.355Z,44.67
2019-05-20T08:29:05.594Z,41.50
2019-05-20T08:31:32.334Z,37.03
2019-05-20T08:33:59.156Z,38.73
2019-05-20T08:36:26.038Z,41.50
2019-05-20T08:38:52.788Z,43.73
2019-05-20T08:41:19.545Z,40.80
2019-05-20T08:43:46.755Z,44.43
2019-05-20T08:46:13.719Z,42.17
2019-05-20T08:48:40.490Z,41.87
2019-05-20T08:51:07.456Z,46.30
2019-05-20T08:53:34.153Z,42.40
2019-05-20T08:56:00.931Z,41.17
2019-05-20T08:58:27.962Z,39.73
2019-05-20T09:00:57.497Z,44.30
2019-05-20T09:03:24.374Z,43.20
2019-05-20T09:05:51.180Z,43.50
2019-05-20T09:08:18.147Z,42.73
2019-05-20T09:10:44.904Z,46.33
2019-05-20T09:13:11.639Z,39.67
2019-05-20T09:15:38.394Z,38.37
2019-05-20T09:18:05.182Z,41.10
2019-05-20T09:20:32.114Z,42.20
2019-05-20T09:23:02.534Z,43.93
2019-05-20T09:25:31.630Z,47.13
2019-05-20T09:27:59.237Z,44.73
2019-05-20T09:30:26.179Z,43.43
2019-05-20T09:32:52.946Z,42.57
2019-05-20T09:35:19.811Z,41.80
2019-05-20T09:37:46.628Z,38.30
2019-05-20T09:40:21.832Z,42.17
2019-05-20T09:42:48.661Z,36.83
2019-05-20T09:45:15.445Z,40.30
2019-05-20T09:47:42.744Z,37.70
2019-05-20T09:50:09.618Z,41.70
2019-05-20T09:52:36.395Z,41.43
2019-05-20T09:55:04.914Z,38.40
2019-05-20T09:57:31.717Z,39.87
2019-05-20T09:59:58.990Z,35.97
2019-05-20T10:02:36.116Z,41.30
2019-05-20T10:04:54.421Z,39.50
2019-05-20T10:07:21.858Z,40.53
2019-05-20T10:09:48.913Z,38.90
2019-05-20T10:12:15.976Z,34.70
2019-05-20T10:14:42.825Z,36.30
2019-05-20T10:17:09.906Z,34.87
2019-05-20T10:19:36.745Z,35.30
2019-05-20T10:22:03.545Z,40.93
2019-05-20T10:24:30.259Z,31.93
2019-05-20T10:26:57.170Z,36.80
2019-05-20T10:29:26.962Z,40.60
2019-05-20T10:31:54.390Z,39.33
2019-05-20T10:34:21.478Z,36.03
2019-05-20T10:36:48.182Z,37.90
2019-05-20T10:39:14.908Z,35.10
2019-05-20T10:41:41.826Z,33.77
2019-05-20T10:44:08.627Z,33.93
2019-05-20T10:46:35.770Z,35.47
2019-05-20T10:49:02.946Z,33.90
2019-05-20T10:51:29.898Z,33.77
2019-05-20T10:53:59.483Z,30.90
2019-05-20T10:56:26.210Z,30.43
2019-05-20T10:58:53.052Z,29.17
2019-05-20T11:01:19.794Z,33.17
2019-05-20T11:03:47.105Z,29.03
2019-05-20T11:06:13.894Z,31.47
2019-05-20T11:08:40.709Z,30.27
2019-05-20T11:11:13.849Z,34.73
2019-05-20T11:13:40.550Z,26.90
2019-05-20T11:16:21.427Z,26.10
2019-05-20T11:18:42.283Z,30.33
2019-05-20T11:21:09.011Z,26.50
2019-05-20T11:23:35.876Z,36.73
2019-05-20T11:26:02.614Z,29.70
2019-05-20T11:28:29.712Z,30.33
2019-05-20T11:30:56.420Z,28.23
2019-05-20T11:33:26.990Z,21.03
2019-05-20T11:35:57.459Z,25.57
2019-05-20T11:38:24.268Z,24.83
2019-05-20T11:40:51.220Z,22.60
2019-05-20T11:43:17.986Z,21.63
2019-05-20T11:45:44.703Z,23.53
2019-05-20T11:48:11.606Z,23.33
2019-05-20T11:50:38.462Z,22.10
2019-05-20T11:53:05.205Z,22.83
2019-05-20T11:55:32.018Z,20.23
2019-05-20T11:58:15.871Z,19.33
2019-05-20T12:00:35.768Z,17.10
2019-05-20T12:03:02.881Z,16.93
2019-05-20T12:05:31.687Z,20.77
2019-05-20T12:07:58.523Z,16.47
2019-05-20T12:10:25.571Z,16.93
2019-05-20T12:12:52.415Z,23.60
2019-05-20T12:15:19.108Z,14.73
2019-05-20T12:17:45.961Z,14.50
2019-05-20T12:20:15.853Z,13.60
2019-05-20T12:22:42.684Z,18.27
2019-05-20T12:25:09.429Z,13.33
2019-05-20T12:27:43.368Z,17.27
2019-05-20T12:30:10.987Z,21.33
2019-05-20T12:32:37.705Z,17.80
2019-05-20T12:35:05.524Z,18.20
2019-05-20T12:37:32.244Z,15.07
2019-05-20T12:40:07.053Z,14.07
2019-05-20T12:42:31.321Z,14.20
2019-05-20T12:44:58.048Z,19.23
2019-05-20T12:47:24.806Z,17.43
2019-05-20T12:49:52.068Z,18.67
2019-05-20T12:52:19.295Z,15.67
2019-05-20T12:54:46.026Z,13.20
2019-05-20T12:57:12.745Z,12.47
2019-05-20T12:59:39.476Z,12.10
2019-05-20T13:02:06.648Z,12.60
2019-05-20T13:04:37.222Z,13.33
2019-05-20T13:07:04.234Z,12.73
2019-05-20T13:09:31.011Z,15.03
2019-05-20T13:11:58.706Z,12.80
2019-05-20T13:14:25.445Z,16.10
2019-05-20T13:16:52.369Z,15.53
2019-05-20T13:19:19.152Z,13.60
2019-05-20T13:21:45.896Z,12.20
2019-05-20T13:24:12.624Z,16.50
2019-05-20T13:26:39.868Z,12.03
2019-05-20T13:29:06.624Z,15.43
2019-05-20T13:31:40.046Z,13.87
2019-05-20T13:34:06.834Z,12.20
2019-05-20T13:36:33.592Z,12.10
2019-05-20T13:39:00.553Z,12.50
2019-05-20T13:41:27.857Z,13.60
2019-05-20T13:43:54.582Z,12.03
2019-05-20T13:46:21.473Z,13.30
2019-05-20T13:48:48.571Z,11.70
2019-05-20T13:51:16.358Z,12.30
2019-05-20T13:53:44.700Z,14.60
2019-05-20T13:56:11.551Z,13.80
2019-05-20T13:58:39.952Z,11.90
2019-05-20T14:01:08.510Z,11.40
2019-05-20T14:03:35.276Z,11.40
2019-05-20T14:06:02.065Z,12.83
2019-05-20T14:08:29.300Z,11.87
2019-05-20T14:11:04.210Z,11.00
2019-05-20T14:13:25.350Z,12.40
2019-05-20T14:15:52.184Z,12.37
2019-05-20T14:18:18.971Z,10.50
2019-05-20T14:20:45.677Z,13.60
2019-05-20T14:23:12.556Z,11.00
2019-05-20T14:25:39.348Z,11.10
2019-05-20T14:28:06.096Z,11.57
2019-05-20T14:30:34.254Z,10.90
2019-05-20T14:33:01.142Z,10.13
2019-05-20T14:35:27.985Z,19.03
2019-05-20T14:37:54.744Z,9.40
2019-05-20T14:40:21.566Z,10.47
2019-05-20T14:42:48.346Z,14.70
2019-05-20T14:45:15.425Z,14.93
2019-05-20T14:47:42.179Z,14.40
2019-05-20T14:50:09.036Z,11.90
2019-05-20T14:52:36.047Z,12.20
2019-05-20T14:55:03.293Z,13.07
2019-05-20T14:57:30.259Z,14.93
2019-05-20T14:59:56.986Z,16.70
2019-05-20T15:02:30.767Z,15.50
2019-05-20T15:04:55.703Z,13.40
2019-05-20T15:07:29.794Z,13.10
2019-05-20T15:09:52.899Z,12.73
2019-05-20T15:12:19.895Z,10.27
2019-05-20T15:14:46.653Z,11.13
2019-05-20T15:17:13.383Z,11.60
2019-05-20T15:19:40.349Z,10.80
2019-05-20T15:22:08.002Z,11.53
2019-05-20T15:24:34.797Z,10.30
2019-05-20T15:27:02.309Z,12.23
2019-05-20T15:29:29.343Z,11.70
2019-05-20T15:32:00.590Z,12.43
2019-05-20T15:34:29.223Z,16.80
2019-05-20T15:36:56.012Z,12.13
2019-05-20T15:39:22.760Z,13.10
2019-05-20T15:41:49.446Z,11.80
2019-05-20T15:44:16.866Z,12.67
2019-05-20T15:46:44.088Z,14.43
2019-05-20T15:49:10.909Z,15.40
2019-05-20T15:51:37.681Z,12.97
2019-05-20T15:54:04.556Z,15.93
2019-05-20T15:56:31.277Z,15.03
2019-05-20T15:58:58.016Z,19.93
2019-05-20T16:01:27.471Z,19.93
2019-05-20T16:03:54.348Z,19.10
2019-05-20T16:06:21.509Z,17.57
2019-05-20T16:08:48.752Z,20.23
2019-05-20T16:11:15.613Z,20.03
2019-05-20T16:13:42.375Z,19.17
2019-05-20T16:16:12.813Z,19.83
2019-05-20T16:18:38.053Z,17.23
2019-05-20T16:21:04.788Z,17.23
2019-05-20T16:23:32.105Z,19.07
2019-05-20T16:25:59.120Z,17.53
2019-05-20T16:28:25.984Z,18.37
2019-05-20T16:30:56.509Z,17.47
2019-05-20T16:33:25.582Z,20.23
2019-05-20T16:35:52.314Z,18.67
2019-05-20T16:38:19.075Z,20.07
2019-05-20T16:40:45.805Z,17.43
2019-05-20T16:43:12.530Z,20.30
2019-05-20T16:45:39.641Z,19.23
2019-05-20T16:48:06.687Z,17.30
2019-05-20T16:50:33.474Z,21.73
2019-05-20T16:53:00.176Z,20.07
2019-05-20T16:55:26.896Z,19.97
2019-05-20T16:57:53.701Z,20.80
2019-05-20T17:00:31.541Z,19.60
2019-05-20T17:02:49.052Z,19.87
2019-05-20T17:05:15.849Z,21.40
2019-05-20T17:07:42.625Z,25.77
2019-05-20T17:10:09.478Z,27.13
2019-05-20T17:12:36.220Z,22.10
2019-05-20T17:15:03.038Z,19.77
2019-05-20T17:17:31.987Z,21.53
2019-05-20T17:19:58.729Z,21.60
2019-05-20T17:22:25.454Z,24.10
2019-05-20T17:24:52.212Z,21.50
2019-05-20T17:27:18.959Z,21.93
2019-05-20T17:29:45.676Z,19.90
2019-05-20T17:32:12.470Z,19.40
2019-05-20T17:34:39.837Z,22.40
2019-05-20T17:37:06.593Z,24.00
2019-05-20T17:39:33.414Z,25.10
2019-05-20T17:42:00.631Z,27.10
2019-05-20T17:44:27.619Z,22.63
2019-05-20T17:46:54.362Z,26.73
2019-05-20T17:49:21.451Z,28.43
2019-05-20T17:51:49.385Z,28.33
2019-05-20T17:54:16.435Z,27.33
2019-05-20T17:56:43.272Z,29.27
2019-05-20T17:59:10.058Z,26.60
2019-05-20T18:01:36.867Z,26.33
2019-05-20T18:04:03.945Z,25.13
2019-05-20T18:06:30.634Z,26.03
2019-05-20T18:08:59.670Z,27.80
2019-05-20T18:11:26.359Z,28.20
2019-05-20T18:13:56.336Z,28.80
2019-05-20T18:16:23.597Z,30.20
2019-05-20T18:18:50.352Z,29.70
2019-05-20T18:21:17.232Z,32.60
2019-05-20T18:23:44.016Z,35.60
2019-05-20T18:26:11.117Z,27.20
2019-05-20T18:28:37.929Z,25.27
2019-05-20T18:31:04.889Z,29.43
2019-05-20T18:33:31.988Z,27.53
2019-05-20T18:35:58.756Z,30.13
2019-05-20T18:38:25.894Z,29.97
2019-05-20T18:40:53.783Z,30.83
2019-05-20T18:43:20.820Z,29.80
2019-05-20T18:45:47.545Z,27.73
2019-05-20T18:48:14.388Z,27.43
2019-05-20T18:50:41.069Z,29.40
2019-05-20T18:53:07.817Z,28.03
2019-05-20T18:55:35.078Z,26.43
2019-05-20T18:58:01.912Z,29.77
2019-05-20T19:00:29.093Z,26.03
2019-05-20T19:02:55.832Z,27.57
2019-05-20T19:05:22.670Z,29.50
2019-05-20T19:07:52.369Z,27.07
2019-05-20T19:10:19.537Z,29.73
2019-05-20T19:12:48.359Z,27.80
2019-05-20T19:15:15.198Z,25.63
2019-05-20T19:17:42.010Z,27.10
2019-05-20T19:20:12.360Z,35.47
2019-05-20T19:22:39.070Z,45.60
2019-05-20T19:25:06.901Z,33.60
2019-05-20T19:27:34.022Z,32.53
2019-05-20T19:30:00.788Z,27.50
2019-05-20T19:32:27.863Z,27.83
2019-05-20T19:34:54.592Z,28.00
2019-05-20T19:37:21.724Z,32.87
2019-05-20T19:39:48.456Z,32.23
2019-05-20T19:42:15.242Z,36.47
2019-05-20T19:44:41.960Z,31.30
2019-05-20T19:47:08.856Z,38.50
2019-05-20T19:49:37.010Z,31.27
2019-05-20T19:52:03.765Z,32.70
2019-05-20T19:54:30.523Z,32.60
2019-05-20T19:56:58.553Z,30.27
2019-05-20T19:59:25.719Z,29.20
2019-05-20T20:01:52.573Z,29.03
2019-05-20T20:04:19.755Z,30.80
2019-05-20T20:06:46.506Z,34.80
2019-05-20T20:09:13.562Z,26.60
2019-05-20T20:11:42.244Z,30.70
2019-05-20T20:14:08.970Z,29.30
2019-05-20T20:16:36.063Z,30.73
2019-05-20T20:19:02.802Z,31.23
2019-05-20T20:21:29.536Z,29.17
2019-05-20T20:23:56.240Z,32.67
2019-05-20T20:26:25.848Z,30.93
2019-05-20T20:28:52.677Z,29.43
2019-05-20T20:31:19.798Z,29.50
2019-05-20T20:33:46.626Z,32.83
2019-05-20T20:36:13.340Z,30.70
2019-05-20T20:38:40.081Z,32.67
2019-05-20T20:41:07.130Z,29.90
2019-05-20T20:43:33.862Z,32.10
2019-05-20T20:46:03.751Z,31.30
2019-05-20T20:48:30.481Z,30.10
2019-05-20T20:50:57.260Z,28.67
2019-05-20T20:53:24.117Z,30.00
2019-05-20T20:55:51.512Z,34.37
2019-05-20T20:58:18.230Z,31.13
2019-05-20T21:00:45.186Z,33.77
2019-05-20T21:03:11.946Z,31.13
2019-05-20T21:05:38.700Z,33.23
2019-05-20T21:08:05.794Z,31.30
2019-05-20T21:10:32.617Z,34.73
2019-05-20T21:13:04.402Z,30.77
2019-05-20T21:15:33.906Z,30.80
2019-05-20T21:18:01.168Z,28.00
2019-05-20T21:20:27.999Z,30.10
2019-05-20T21:22:54.755Z,31.17
2019-05-20T21:25:21.585Z,30.00
2019-05-20T21:27:48.847Z,30.70
2019-05-20T21:30:15.614Z,31.87
2019-05-20T21:32:42.374Z,32.57
2019-05-20T21:35:09.155Z,36.13
2019-05-20T21:37:41.909Z,36.57
2019-05-20T21:40:09.160Z,37.80
2019-05-20T21:42:35.944Z,34.80
2019-05-20T21:45:03.538Z,33.50
2019-05-20T21:47:30.654Z,31.97
2019-05-20T21:49:57.918Z,32.53
2019-05-20T21:52:25.104Z,31.50
2019-05-20T21:54:51.950Z,33.80
2019-05-20T21:57:18.687Z,32.13
2019-05-20T21:59:45.593Z,32.63
2019-05-20T22:02:12.551Z,31.77
2019-05-20T22:04:39.475Z,29.00
2019-05-20T22:07:06.442Z,28.00
2019-05-20T22:09:33.311Z,29.80
2019-05-20T22:12:00.161Z,30.23
2019-05-20T22:14:27.456Z,27.00
2019-05-20T22:16:54.325Z,30.83
2019-05-20T22:19:21.106Z,31.60
2019-05-20T22:21:54.543Z,33.77
2019-05-20T22:24:21.312Z,30.83
2019-05-20T22:26:49.564Z,32.80
2019-05-20T22:29:16.320Z,31.40
2019-05-20T22:32:19.668Z,29.83
2019-05-20T22:34:53.639Z,33.73
2019-05-20T22:37:15.133Z,37.57
2019-05-20T22:39:41.896Z,28.10
2019-05-20T22:42:08.643Z,29.30
2019-05-20T22:44:35.759Z,28.33
2019-05-20T22:47:04.941Z,32.27
2019-05-20T22:49:32.005Z,30.00
2019-05-20T22:51:58.728Z,31.53
2019-05-20T22:54:25.475Z,30.13
2019-05-20T22:56:52.638Z,29.67
2019-05-20T22:59:19.389Z,26.43
2019-05-20T23:01:46.100Z,30.07
2019-05-20T23:04:13.744Z,25.50
2019-05-20T23:06:40.486Z,27.00
2019-05-20T23:09:09.517Z,30.43
2019-05-20T23:11:36.645Z,30.27
2019-05-20T23:14:03.929Z,29.00
2019-05-20T23:16:30.894Z,28.73
2019-05-20T23:18:57.717Z,31.20
2019-05-20T23:21:24.399Z,27.87
2019-05-20T23:23:52.714Z,26.53
2019-05-20T23:26:19.566Z,23.00
2019-05-20T23:28:46.315Z,26.00
2019-05-20T23:31:13.066Z,26.60
2019-05-20T23:33:39.834Z,23.20
2019-05-20T23:36:06.604Z,25.67
2019-05-20T23:38:33.348Z,25.17
2019-05-20T23:41:00.052Z,24.70
2019-05-20T23:43:26.897Z,25.57
2019-05-20T23:45:53.608Z,26.90
2019-05-20T23:48:20.386Z,28.77
2019-05-20T23:50:47.491Z,24.80
2019-05-20T23:53:14.281Z,29.50
2019-05-20T23:55:43.750Z,24.23
2019-05-20T23:58:10.682Z,25.00
